首页
METAR-TAF:

METAR-TAF

机场 :

Terrace, 不列颠哥伦比亚, 加拿大

纬度: 54-28N, 经度: 128-35W, 海拔: 217米

当前天气观测

该预报发布于22分钟前的17:00 UTC
风速3节,风向东南,在东转东南西之间变化
温度 19°C
湿度 78%
气压 1018 hPa
能見度: 32.2公里
少量云层高于1600英尺
多云层高于21000英尺

METAR: CYXT 211700Z 14003KT 120V270 20SM FEW016 BKN210 19/15 A3005 RMK CF1CI5 SLP177 DENSITY ALT 1200FT

时间: 10:22 (17:22 UTC)

预报

该预报发布于4小时和42分钟前的12:40 UTC
预报有效从21日的 13点(UTC)到 22日的 01点(UTC)
风速6节,风向南转南东
能見度: 10公里
散云层高于10000英尺
成为
从 21日的 15点(UTC)到 21日的 17点(UTC)
风速10节,风向
成为
从 21日的 20点(UTC)到 21日的 22点(UTC)
风速18节,风向,有时为28节阵风

TAF: CYXT 211240Z 2113/2201 16006KT P6SM SCT100 BECMG 2115/2117 18010KT BECMG 2120/2122 18018G28KT RMK NXT FCST BY 211900Z

超过4000个机场的气象观测和天气预报(METAR&TAF报告)。

可查询的气象台以黄色和红色小点在地图上表示。

将鼠标移到小点上方,可查看气象台名称。

然后点击查看天气观测和预报。

如需切换地图:点击带黑十字的绿色按钮放大地图;点击带横线的绿色按钮缩小地图;或者点击绿色箭头查看邻近地区的地图。


METAR-TAF: